createdAt,value
2019-02-16T00:01:29.341Z,7.77
2019-02-16T00:06:38.287Z,7.03
2019-02-16T00:11:51.119Z,7.37
2019-02-16T00:17:00.970Z,7.47
2019-02-16T00:22:14.278Z,8.07
2019-02-16T00:27:23.335Z,8.00
2019-02-16T00:32:34.120Z,7.10
2019-02-16T00:37:48.468Z,7.63
2019-02-16T00:42:58.535Z,6.93
2019-02-16T00:48:10.422Z,8.17
2019-02-16T00:53:21.250Z,8.00
2019-02-16T00:58:32.043Z,7.23
2019-02-16T01:03:44.755Z,7.93
2019-02-16T01:08:57.379Z,7.83
2019-02-16T01:14:04.244Z,7.40
2019-02-16T01:19:19.363Z,7.47
2019-02-16T01:24:32.037Z,7.43
2019-02-16T01:29:45.264Z,7.67
2019-02-16T01:34:59.204Z,6.80
2019-02-16T01:40:12.602Z,7.13
2019-02-16T01:45:22.000Z,6.85
2019-02-16T01:50:33.790Z,6.45
2019-02-16T01:55:48.681Z,6.47
2019-02-16T02:01:02.669Z,6.77
2019-02-16T02:06:15.015Z,7.43
2019-02-16T02:11:23.312Z,7.37
2019-02-16T02:16:36.210Z,7.70
2019-02-16T02:21:48.286Z,6.97
2019-02-16T02:27:00.173Z,6.77
2019-02-16T02:32:09.849Z,7.23
2019-02-16T02:37:20.015Z,7.70
2019-02-16T02:42:31.540Z,7.47
2019-02-16T02:47:42.606Z,7.53
2019-02-16T02:52:56.641Z,6.90
2019-02-16T02:58:10.830Z,7.30
2019-02-16T03:03:23.810Z,6.30
2019-02-16T03:08:32.876Z,7.07
2019-02-16T03:13:44.908Z,6.90
2019-02-16T03:18:58.609Z,6.87
2019-02-16T03:24:09.639Z,5.97
2019-02-16T03:29:43.315Z,6.83
2019-02-16T03:35:08.844Z,6.97
2019-02-16T03:40:21.906Z,7.00
2019-02-16T03:45:30.454Z,7.50
2019-02-16T03:50:43.218Z,7.40
2019-02-16T03:55:54.128Z,6.90
2019-02-16T04:01:07.060Z,6.33
2019-02-16T04:06:19.957Z,6.90
2019-02-16T04:11:30.898Z,7.13
2019-02-16T04:16:40.044Z,6.80
2019-02-16T04:21:56.036Z,7.20
2019-02-16T04:27:03.783Z,7.00
2019-02-16T04:32:14.682Z,6.75
2019-02-16T04:37:24.582Z,6.20
2019-02-16T04:42:39.115Z,6.67
2019-02-16T04:47:54.529Z,6.70
2019-02-16T04:53:07.206Z,7.40
2019-02-16T04:58:19.787Z,6.78
2019-02-16T05:03:28.703Z,7.10
2019-02-16T05:08:38.923Z,7.33
2019-02-16T05:13:53.063Z,6.47
2019-02-16T05:19:04.199Z,7.80
2019-02-16T05:24:19.881Z,7.33
2019-02-16T05:29:31.595Z,7.67
2019-02-16T05:34:41.454Z,7.28
2019-02-16T05:39:52.073Z,7.30
2019-02-16T05:45:00.414Z,7.23
2019-02-16T05:50:10.686Z,7.40
2019-02-16T05:55:23.528Z,7.20
2019-02-16T06:00:39.530Z,7.27
2019-02-16T06:05:51.363Z,8.60
2019-02-16T06:11:03.247Z,7.00
2019-02-16T06:16:10.430Z,8.00
2019-02-16T06:21:19.913Z,7.58
2019-02-16T06:26:29.186Z,7.97
2019-02-16T06:31:40.394Z,7.67
2019-02-16T06:36:52.072Z,6.73
2019-02-16T06:42:03.053Z,7.10
2019-02-16T06:47:13.232Z,7.33
2019-02-16T06:52:25.764Z,7.85
2019-02-16T06:57:36.052Z,7.57
2019-02-16T07:02:48.707Z,8.40
2019-02-16T07:08:06.727Z,8.60
2019-02-16T07:13:15.756Z,8.78
2019-02-16T07:18:42.923Z,7.75
2019-02-16T07:23:53.639Z,8.87
2019-02-16T07:29:03.565Z,8.10
2019-02-16T07:34:12.640Z,8.63
2019-02-16T07:39:19.478Z,8.18
2019-02-16T07:44:41.540Z,9.33
2019-02-16T07:50:00.619Z,8.37
2019-02-16T07:55:23.463Z,8.35
2019-02-16T08:00:46.473Z,8.60
2019-02-16T08:06:04.228Z,8.87
2019-02-16T08:11:40.305Z,9.27
2019-02-16T08:17:13.253Z,9.23
2019-02-16T08:22:39.918Z,10.35
2019-02-16T08:28:00.381Z,9.00
2019-02-16T08:33:29.770Z,10.10
2019-02-16T08:38:59.780Z,10.03
2019-02-16T08:44:17.412Z,10.13
2019-02-16T08:49:39.748Z,10.38
2019-02-16T08:55:04.474Z,10.40
2019-02-16T09:00:36.716Z,9.87
2019-02-16T09:05:56.900Z,10.30
2019-02-16T09:11:36.234Z,9.47
2019-02-16T09:16:53.816Z,10.10
2019-02-16T09:22:25.122Z,10.70
2019-02-16T09:27:58.802Z,11.43
2019-02-16T09:33:35.571Z,11.70
2019-02-16T09:39:04.337Z,11.78
2019-02-16T09:44:23.174Z,11.73
2019-02-16T09:49:50.084Z,13.93
2019-02-16T09:55:29.671Z,12.33
2019-02-16T10:01:09.218Z,12.90
2019-02-16T10:06:40.744Z,13.20
2019-02-16T10:12:04.587Z,13.28
2019-02-16T10:17:32.077Z,12.93
2019-02-16T10:23:09.991Z,13.48
2019-02-16T10:28:39.753Z,13.60
2019-02-16T10:34:02.857Z,13.40
2019-02-16T10:39:42.952Z,14.15
2019-02-16T10:45:11.699Z,14.33
2019-02-16T10:50:52.838Z,14.90
2019-02-16T10:56:26.980Z,15.03
2019-02-16T11:02:12.137Z,14.03
2019-02-16T11:07:44.939Z,14.03
2019-02-16T11:13:14.811Z,13.93
2019-02-16T11:18:43.942Z,13.75
2019-02-16T11:24:22.586Z,14.43
2019-02-16T11:30:06.449Z,15.20
2019-02-16T11:35:34.323Z,14.23
2019-02-16T11:41:04.845Z,15.13
2019-02-16T11:46:32.326Z,15.57
2019-02-16T11:52:12.748Z,15.78
2019-02-16T11:57:32.074Z,15.30
2019-02-16T12:02:48.551Z,15.53
2019-02-16T12:08:22.809Z,14.60
2019-02-16T12:13:54.158Z,15.13
2019-02-16T12:19:24.325Z,15.53
2019-02-16T12:25:05.785Z,15.83
2019-02-16T12:30:28.741Z,15.40
2019-02-16T12:35:54.769Z,15.05
2019-02-16T12:41:30.630Z,15.70
2019-02-16T12:46:48.386Z,16.48
2019-02-16T12:52:24.983Z,14.90
2019-02-16T12:57:44.513Z,15.83
2019-02-16T13:03:18.155Z,15.07
2019-02-16T13:08:54.388Z,14.30
2019-02-16T13:14:27.797Z,14.73
2019-02-16T13:19:46.348Z,14.75
2019-02-16T13:25:05.774Z,15.20
2019-02-16T13:30:45.847Z,15.76
2019-02-16T13:36:13.606Z,14.65
2019-02-16T13:41:34.762Z,14.63
2019-02-16T13:47:09.461Z,14.53
2019-02-16T13:52:27.633Z,15.35
2019-02-16T13:57:52.615Z,14.93
2019-02-16T14:03:24.681Z,14.10
2019-02-16T14:08:54.323Z,14.87
2019-02-16T14:14:29.516Z,14.57
2019-02-16T14:19:42.198Z,15.20
2019-02-16T14:24:56.501Z,14.40
2019-02-16T14:30:06.834Z,14.87
2019-02-16T14:35:16.950Z,14.95
2019-02-16T14:40:29.774Z,15.37
2019-02-16T14:45:38.953Z,15.23
2019-02-16T14:50:46.526Z,15.83
2019-02-16T14:56:00.020Z,15.90
2019-02-16T15:01:11.557Z,15.63
2019-02-16T15:06:23.467Z,16.47
2019-02-16T15:11:34.280Z,16.63
2019-02-16T15:16:47.077Z,17.10
2019-02-16T15:21:59.118Z,16.32
2019-02-16T15:27:09.319Z,16.40
2019-02-16T15:32:18.645Z,17.33
2019-02-16T15:37:26.564Z,16.53
2019-02-16T15:42:38.478Z,17.23
2019-02-16T15:47:46.631Z,17.30
2019-02-16T15:52:59.012Z,17.77
2019-02-16T15:58:10.761Z,17.53
2019-02-16T16:03:23.391Z,16.03
2019-02-16T16:08:38.181Z,17.53
2019-02-16T16:14:07.911Z,17.47
2019-02-16T16:19:26.966Z,18.80
2019-02-16T16:24:51.686Z,18.50
2019-02-16T16:30:12.592Z,19.23
2019-02-16T16:35:38.769Z,18.77
2019-02-16T16:41:00.422Z,18.57
2019-02-16T16:46:26.297Z,19.63
2019-02-16T16:52:05.854Z,19.73
2019-02-16T16:57:39.095Z,20.07
2019-02-16T17:03:13.700Z,19.93
2019-02-16T17:08:35.307Z,20.83
2019-02-16T17:13:59.779Z,20.30
2019-02-16T17:19:28.877Z,21.20
2019-02-16T17:25:00.501Z,21.10
2019-02-16T17:30:23.846Z,21.03
2019-02-16T17:35:54.603Z,21.83
2019-02-16T17:41:18.535Z,20.87
2019-02-16T17:47:04.282Z,21.37
2019-02-16T17:52:41.091Z,21.53
2019-02-16T17:58:16.067Z,23.17
2019-02-16T18:03:58.699Z,23.43
2019-02-16T18:09:33.221Z,22.47
2019-02-16T18:15:00.117Z,23.27
2019-02-16T18:20:22.641Z,23.40
2019-02-16T18:25:40.718Z,23.27
2019-02-16T18:31:10.821Z,22.90
2019-02-16T18:36:44.509Z,21.40
2019-02-16T18:42:02.829Z,21.33
2019-02-16T18:47:28.205Z,23.40
2019-02-16T18:52:56.178Z,23.87
2019-02-16T18:58:39.813Z,25.27
2019-02-16T19:04:00.966Z,25.77
2019-02-16T19:09:38.976Z,27.80
2019-02-16T19:15:03.483Z,28.63
2019-02-16T19:20:39.780Z,27.20
2019-02-16T19:26:11.455Z,26.17
2019-02-16T19:31:41.988Z,28.53
2019-02-16T19:37:04.999Z,26.97
2019-02-16T19:42:28.611Z,31.57
2019-02-16T19:47:55.048Z,31.27
2019-02-16T19:53:23.024Z,31.20
2019-02-16T19:58:47.756Z,34.30
2019-02-16T20:04:26.213Z,31.50
2019-02-16T20:09:55.990Z,31.97
2019-02-16T20:15:18.846Z,30.17
2019-02-16T20:20:42.392Z,31.60
2019-02-16T20:26:09.597Z,32.23
2019-02-16T20:31:49.045Z,32.43
2019-02-16T20:37:04.194Z,34.53
2019-02-16T20:42:35.433Z,33.37
2019-02-16T20:47:58.629Z,27.87
2019-02-16T20:53:48.782Z,37.83
2019-02-16T20:59:06.641Z,36.23
2019-02-16T21:04:34.536Z,36.20
2019-02-16T21:09:53.172Z,39.33
2019-02-16T21:15:19.619Z,32.70
2019-02-16T21:20:47.620Z,34.37
2019-02-16T21:26:19.406Z,33.03
2019-02-16T21:32:06.318Z,33.83
2019-02-16T21:37:35.109Z,33.87
2019-02-16T21:42:52.951Z,30.13
2019-02-16T21:48:11.383Z,30.83
2019-02-16T21:53:30.467Z,32.67
2019-02-16T21:59:03.699Z,34.27
2019-02-16T22:04:38.794Z,30.63
2019-02-16T22:10:05.830Z,30.73
2019-02-16T22:15:20.267Z,33.30
2019-02-16T22:20:29.229Z,33.13
2019-02-16T22:25:42.076Z,37.53
2019-02-16T22:30:56.532Z,34.30
2019-02-16T22:36:08.298Z,31.67
2019-02-16T22:41:23.697Z,34.00
2019-02-16T22:46:32.579Z,32.37
2019-02-16T22:51:47.026Z,35.00
2019-02-16T22:57:01.202Z,33.33
2019-02-16T23:02:11.200Z,33.13
2019-02-16T23:07:19.307Z,36.37
2019-02-16T23:12:31.748Z,31.90
2019-02-16T23:17:47.141Z,30.43
2019-02-16T23:22:58.285Z,34.47
2019-02-16T23:28:08.145Z,33.53
2019-02-16T23:33:15.094Z,34.23
2019-02-16T23:38:21.499Z,31.63
2019-02-16T23:43:30.563Z,31.40
2019-02-16T23:48:42.341Z,39.50
2019-02-16T23:53:56.780Z,37.30
2019-02-16T23:59:07.074Z,39.07
